Time;durP1;ratioP1;P1;durP2;ratioP2;P2;SDS_P1;SDS_P2;PMS_P1;PMS_P2;Temp;Humidity;BMP_temperature;BMP_pressure;BME280_temperature;BME280_humidity;BME280_pressure;Samples;Min_cycle;Max_cycle;Signal;HPM_P1;HPM_P2
2022/07/19 00:00:18;;;;;;;3.53;0.90;;;10.80;98.20;;;;;;5093533;28;20365;-85
2022/07/19 00:02:45;;;;;;;6.77;1.20;;;10.90;98.00;;;;;;5093646;28;20400;-88
2022/07/19 00:05:13;;;;;;;5.43;1.10;;;11.00;97.60;;;;;;5092621;28;20371;-88
2022/07/19 00:07:42;;;;;;;5.90;1.08;;;11.10;97.10;;;;;;5093320;28;20775;-86
2022/07/19 00:10:11;;;;;;;5.90;1.00;;;11.30;97.10;;;;;;5094586;28;20448;-86
2022/07/19 00:12:39;;;;;;;4.80;1.10;;;11.40;96.70;;;;;;5095101;28;20388;-84
2022/07/19 00:15:08;;;;;;;2.20;0.90;;;11.50;97.00;;;;;;5094017;28;20838;-88
2022/07/19 00:17:38;;;;;;;2.55;0.70;;;11.50;96.80;;;;;;5093488;28;20827;-88
2022/07/19 00:20:06;;;;;;;5.55;1.00;;;11.40;96.70;;;;;;5094986;28;20408;-86
2022/07/19 00:22:33;;;;;;;12.80;1.60;;;11.40;97.30;;;;;;5094152;28;20432;-86
2022/07/19 00:25:00;;;;;;;7.03;0.95;;;11.60;97.50;;;;;;5094236;28;20383;-86
2022/07/19 00:27:27;;;;;;;6.40;1.10;;;11.80;96.40;;;;;;5095568;28;20418;-88
2022/07/19 00:29:54;;;;;;;12.80;1.30;;;11.70;96.90;;;;;;5100280;28;20373;-88
2022/07/19 00:32:21;;;;;;;3.97;0.90;;;11.80;96.40;;;;;;5096453;28;20464;-86
2022/07/19 00:34:49;;;;;;;3.67;0.80;;;11.80;96.30;;;;;;5095597;28;20530;-85
2022/07/19 00:37:16;;;;;;;3.25;0.90;;;11.90;96.50;;;;;;5097459;28;20412;-86
2022/07/19 00:39:43;;;;;;;3.15;0.80;;;11.90;96.10;;;;;;5095917;28;20360;-91
2022/07/19 00:42:10;;;;;;;5.20;0.90;;;11.90;96.40;;;;;;5094970;28;20433;-88
2022/07/19 00:44:37;;;;;;;2.53;0.73;;;11.90;96.00;;;;;;5094197;28;20368;-87
2022/07/19 00:47:05;;;;;;;2.28;0.82;;;12.00;96.10;;;;;;5094703;28;20380;-91
2022/07/19 00:49:33;;;;;;;4.60;0.90;;;12.10;96.20;;;;;;5094785;28;20399;-87
2022/07/19 00:52:02;;;;;;;6.43;0.95;;;12.10;96.30;;;;;;5094641;28;20820;-86
2022/07/19 00:54:33;;;;;;;7.20;1.17;;;12.30;95.70;;;;;;5094632;28;20394;-88
2022/07/19 00:57:02;;;;;;;5.93;1.20;;;12.30;95.70;;;;;;5092703;28;20392;-85
2022/07/19 00:59:30;;;;;;;4.30;1.10;;;12.30;96.40;;;;;;5094680;28;20380;-88
2022/07/19 01:01:58;;;;;;;9.93;1.20;;;12.50;95.40;;;;;;5092662;28;20388;-87
2022/07/19 01:04:26;;;;;;;7.38;1.20;;;12.50;95.50;;;;;;5093805;28;20390;-91
2022/07/19 01:06:53;;;;;;;10.43;1.20;;;12.60;95.00;;;;;;5094429;28;20373;-88
2022/07/19 01:09:20;;;;;;;5.07;0.90;;;12.60;95.00;;;;;;5093298;28;20376;-89
2022/07/19 01:11:47;;;;;;;4.75;1.00;;;12.80;94.80;;;;;;5089669;28;20376;-88
2022/07/19 01:14:15;;;;;;;8.18;1.55;;;13.10;94.00;;;;;;5093296;28;20469;-88
2022/07/19 01:16:48;;;;;;;7.38;1.60;;;13.10;94.00;;;;;;5093336;28;20411;-88
2022/07/19 01:19:15;;;;;;;4.50;0.90;;;13.20;94.50;;;;;;5093270;28;20858;-88
2022/07/19 01:21:42;;;;;;;5.85;1.25;;;13.50;92.80;;;;;;5092950;28;20392;-86
2022/07/19 01:24:10;;;;;;;9.02;1.20;;;13.80;92.70;;;;;;5093479;28;20377;-90
2022/07/19 01:26:37;;;;;;;8.18;1.20;;;14.10;91.60;;;;;;5093778;28;20365;-86
2022/07/19 01:29:04;;;;;;;8.95;1.40;;;14.10;91.60;;;;;;5092324;28;20713;-90
2022/07/19 01:31:31;;;;;;;6.90;1.10;;;14.20;91.30;;;;;;5092494;28;20368;-89
2022/07/19 01:33:58;;;;;;;5.13;0.82;;;14.20;91.70;;;;;;5094239;28;20379;-86
2022/07/19 01:36:25;;;;;;;10.80;1.70;;;14.00;91.40;;;;;;5093994;28;20373;-91
2022/07/19 01:38:53;;;;;;;9.93;1.40;;;13.90;92.10;;;;;;5093888;28;20390;-86
2022/07/19 01:41:20;;;;;;;7.50;1.27;;;14.10;91.50;;;;;;5094528;28;20376;-89
2022/07/19 01:43:47;;;;;;;9.05;1.30;;;14.30;90.90;;;;;;5094452;28;20395;-86
2022/07/19 01:46:14;;;;;;;10.00;1.10;;;14.60;90.50;;;;;;5094591;28;20491;-89
2022/07/19 01:48:41;;;;;;;15.68;1.30;;;15.00;88.60;;;;;;5092255;28;20377;-87
2022/07/19 01:51:08;;;;;;;7.30;0.88;;;15.00;86.10;;;;;;5093749;28;20369;-88
2022/07/19 01:53:35;;;;;;;19.65;1.90;;;14.90;86.80;;;;;;5092581;28;20429;-91
2022/07/19 01:56:06;;;;;;;8.20;1.53;;;14.70;87.10;;;;;;5093021;28;20369;-89
2022/07/19 01:58:34;;;;;;;6.28;1.05;;;14.70;87.10;;;;;;5091099;28;20805;-89
2022/07/19 02:01:01;;;;;;;8.15;1.10;;;14.70;87.70;;;;;;5091270;28;20376;-91
2022/07/19 02:03:29;;;;;;;9.95;1.40;;;14.70;87.40;;;;;;5091457;28;20895;-88
2022/07/19 02:05:56;;;;;;;4.57;0.90;;;14.90;87.80;;;;;;5092819;28;20372;-86
2022/07/19 02:08:24;;;;;;;6.87;1.10;;;14.90;86.90;;;;;;5092273;28;20380;-89
2022/07/19 02:10:52;;;;;;;5.10;0.90;;;14.90;86.00;;;;;;5091590;28;20372;-87
2022/07/19 02:13:19;;;;;;;5.00;1.02;;;14.90;87.30;;;;;;5092429;28;20376;-87
2022/07/19 02:15:46;;;;;;;3.07;0.60;;;15.10;87.00;;;;;;5095766;28;20427;-89
2022/07/19 02:18:14;;;;;;;1.60;0.47;;;15.30;86.20;;;;;;5096785;28;20376;-87
2022/07/19 02:20:41;;;;;;;2.70;0.47;;;15.30;84.50;;;;;;5096430;28;20852;-87
2022/07/19 02:23:08;;;;;;;4.20;0.80;;;15.20;84.80;;;;;;5096481;28;20396;-90
2022/07/19 02:25:36;;;;;;;1.35;0.52;;;15.10;85.80;;;;;;5096400;28;20368;-88
2022/07/19 02:28:03;;;;;;;5.35;0.80;;;14.90;87.50;;;;;;5096701;28;20376;-89
2022/07/19 02:30:30;;;;;;;3.95;0.70;;;14.70;87.70;;;;;;5096258;28;20373;-89
2022/07/19 02:32:57;;;;;;;10.10;1.30;;;14.50;89.50;;;;;;5096103;28;20462;-89
2022/07/19 02:35:24;;;;;;;11.10;1.13;;;14.30;90.70;;;;;;5096241;28;20852;-87
2022/07/19 02:37:51;;;;;;;6.55;0.75;;;14.00;91.00;;;;;;5095957;28;20400;-89
2022/07/19 02:40:18;;;;;;;9.73;1.02;;;14.00;92.10;;;;;;5096202;28;20377;-86
2022/07/19 02:42:46;;;;;;;8.77;1.10;;;14.00;92.30;;;;;;5094951;28;20410;-86
2022/07/19 02:45:13;;;;;;;3.40;0.70;;;14.00;92.10;;;;;;5096645;28;20421;-87
2022/07/19 02:47:40;;;;;;;9.18;1.20;;;14.00;92.60;;;;;;5098115;28;20923;-87
2022/07/19 02:50:08;;;;;;;3.80;0.50;;;14.20;92.70;;;;;;5098159;28;20437;-90
2022/07/19 02:52:35;;;;;;;5.85;0.70;;;14.40;92.00;;;;;;5099826;28;20379;-89
2022/07/19 02:55:02;;;;;;;5.57;1.00;;;14.60;91.30;;;;;;5102269;28;20380;-86
2022/07/19 02:57:29;;;;;;;10.67;1.10;;;14.70;91.60;;;;;;5098900;28;20375;-87
2022/07/19 02:59:57;;;;;;;6.43;0.90;;;14.90;91.60;;;;;;5098518;28;20399;-90
2022/07/19 03:02:24;;;;;;;7.47;1.20;;;14.90;91.10;;;;;;5096770;28;20396;-88
2022/07/19 03:04:51;;;;;;;8.95;1.13;;;14.90;91.10;;;;;;5096291;28;20369;-88
2022/07/19 03:07:18;;;;;;;3.15;0.60;;;14.90;91.00;;;;;;5096202;28;20388;-88
2022/07/19 03:09:47;;;;;;;4.05;0.70;;;14.90;91.00;;;;;;5096278;28;20386;-87
2022/07/19 03:12:14;;;;;;;13.03;1.20;;;14.80;91.30;;;;;;5096402;28;20377;-87
2022/07/19 03:14:41;;;;;;;16.33;1.73;;;14.70;91.20;;;;;;5096271;28;20365;-90
2022/07/19 03:17:08;;;;;;;12.05;1.45;;;14.60;92.30;;;;;;5095813;28;20463;-86
2022/07/19 03:19:35;;;;;;;5.03;0.60;;;14.50;92.30;;;;;;5095519;28;20848;-87
2022/07/19 03:22:03;;;;;;;3.60;0.50;;;14.50;92.20;;;;;;5095907;28;20388;-86
2022/07/19 03:24:30;;;;;;;4.30;0.80;;;14.60;92.40;;;;;;5095839;28;21010;-87
2022/07/19 03:26:57;;;;;;;5.82;1.08;;;14.60;92.50;;;;;;5094437;28;20376;-89
2022/07/19 03:29:24;;;;;;;4.80;0.63;;;14.70;92.60;;;;;;5095882;28;20544;-89
2022/07/19 03:31:52;;;;;;;3.90;0.73;;;14.70;92.60;;;;;;5107887;28;20377;-90
2022/07/19 03:34:19;;;;;;;4.78;0.80;;;14.70;92.80;;;;;;5113523;28;20375;-89
2022/07/19 03:36:46;;;;;;;3.00;0.55;;;14.70;92.60;;;;;;5114557;28;20398;-87
2022/07/19 03:39:14;;;;;;;2.33;0.60;;;14.70;92.80;;;;;;5112847;28;20376;-88
2022/07/19 03:41:41;;;;;;;3.40;0.70;;;14.60;93.10;;;;;;5095618;28;20978;-87
2022/07/19 03:44:08;;;;;;;4.15;0.65;;;14.60;93.40;;;;;;5095147;28;20503;-88
2022/07/19 03:46:35;;;;;;;5.47;0.90;;;14.60;93.90;;;;;;5093881;28;20827;-87
2022/07/19 03:49:02;;;;;;;3.10;0.50;;;14.80;93.20;;;;;;5094599;28;20385;-86
2022/07/19 03:51:29;;;;;;;3.17;0.50;;;14.90;93.30;;;;;;5095327;28;20380;-90
2022/07/19 03:53:57;;;;;;;4.47;0.45;;;14.70;94.20;;;;;;5094708;28;20860;-85
2022/07/19 03:56:24;;;;;;;2.20;0.40;;;14.50;95.20;;;;;;5094534;28;20856;-88
2022/07/19 03:58:51;;;;;;;1.45;0.50;;;14.30;95.70;;;;;;5094331;28;20380;-89
2022/07/19 04:01:18;;;;;;;10.20;1.40;;;14.20;96.20;;;;;;5094555;28;20388;-89
2022/07/19 04:03:45;;;;;;;8.38;1.00;;;14.30;96.90;;;;;;5093208;28;20407;-89
2022/07/19 04:06:12;;;;;;;12.80;1.40;;;14.40;97.10;;;;;;5094590;28;20893;-89
2022/07/19 04:08:40;;;;;;;4.47;0.60;;;14.50;96.40;;;;;;5094623;28;20768;-92
2022/07/19 04:11:07;;;;;;;5.68;0.57;;;14.70;95.40;;;;;;5093089;28;20380;-91
2022/07/19 04:13:36;;;;;;;2.90;0.50;;;14.70;95.60;;;;;;5094883;28;20372;-89
2022/07/19 04:16:04;;;;;;;1.58;0.55;;;14.80;95.30;;;;;;5095499;28;20400;-86
2022/07/19 04:18:31;;;;;;;2.80;0.50;;;14.70;95.50;;;;;;5094349;28;20415;-86
2022/07/19 04:20:58;;;;;;;2.10;0.50;;;14.50;95.90;;;;;;5095073;28;20718;-88
2022/07/19 04:23:25;;;;;;;4.70;0.60;;;14.30;96.30;;;;;;5096065;28;20923;-86
2022/07/19 04:25:53;;;;;;;4.18;0.47;;;14.10;97.00;;;;;;5097444;28;20398;-88
2022/07/19 04:28:20;;;;;;;3.88;0.40;;;14.10;97.30;;;;;;5099346;28;20390;-89
2022/07/19 04:30:47;;;;;;;3.20;0.60;;;14.10;97.80;;;;;;5095152;28;20414;-87
2022/07/19 04:33:16;;;;;;;0.88;0.50;;;14.30;97.70;;;;;;5095270;28;20369;-85
2022/07/19 04:35:44;;;;;;;2.00;0.43;;;14.40;97.60;;;;;;5096475;28;20376;-84
2022/07/19 04:38:11;;;;;;;1.45;0.43;;;14.40;97.30;;;;;;5095741;28;20428;-88
2022/07/19 04:40:38;;;;;;;2.15;0.47;;;14.30;97.60;;;;;;5095293;28;20844;-90
2022/07/19 04:43:06;;;;;;;1.40;0.50;;;14.30;98.10;;;;;;5094363;28;20892;-90
2022/07/19 04:45:33;;;;;;;1.65;0.50;;;14.20;99.20;;;;;;5093261;28;20365;-86
2022/07/19 04:48:02;;;;;;;0.50;0.40;;;14.10;99.70;;;;;;5094709;28;20380;-86
2022/07/19 04:50:30;;;;;;;1.50;0.55;;;13.90;99.90;;;;;;5095792;28;20770;-88
2022/07/19 04:52:57;;;;;;;2.25;0.50;;;13.70;99.90;;;;;;5094867;28;20405;-89
2022/07/19 04:55:24;;;;;;;3.22;0.65;;;13.50;99.90;;;;;;5094914;28;20375;-88
2022/07/19 04:57:51;;;;;;;2.80;0.50;;;13.20;99.90;;;;;;5093522;28;20388;-87
2022/07/19 05:00:19;;;;;;;3.08;0.40;;;13.00;99.90;;;;;;5092664;28;20387;-86
2022/07/19 05:02:46;;;;;;;1.13;0.32;;;13.00;99.90;;;;;;5093991;28;20428;-88
2022/07/19 05:05:14;;;;;;;3.33;0.40;;;13.10;99.90;;;;;;5095261;28;20403;-83
2022/07/19 05:07:43;;;;;;;7.45;1.10;;;13.20;99.90;;;;;;5096326;28;20376;-92
2022/07/19 05:10:11;;;;;;;4.28;0.68;;;13.30;99.90;;;;;;5091433;28;20383;-86
2022/07/19 05:12:40;;;;;;;0.60;0.38;;;13.50;99.90;;;;;;5093456;28;20923;-88
2022/07/19 05:15:08;;;;;;;1.88;0.50;;;13.60;99.90;;;;;;5094556;28;20373;-90
2022/07/19 05:17:36;;;;;;;1.70;0.40;;;13.60;99.90;;;;;;5093728;28;20380;-89
2022/07/19 05:20:05;;;;;;;1.70;0.40;;;13.50;99.90;;;;;;5095656;28;20376;-90
2022/07/19 05:22:33;;;;;;;2.45;0.40;;;13.50;99.90;;;;;;5099359;28;20393;-90
2022/07/19 05:25:02;;;;;;;6.07;0.65;;;13.40;99.90;;;;;;5079058;28;20384;-91
2022/07/19 05:27:30;;;;;;;3.63;0.80;;;13.40;99.90;;;;;;5095422;28;20467;-89
2022/07/19 05:29:57;;;;;;;4.97;0.60;;;13.10;99.90;;;;;;5092724;28;20365;-90
2022/07/19 05:32:24;;;;;;;2.70;0.50;;;12.80;99.90;;;;;;5093742;28;20410;-88
2022/07/19 05:34:51;;;;;;;1.77;0.50;;;12.50;99.90;;;;;;5093183;28;20380;-90
2022/07/19 05:37:18;;;;;;;3.35;0.50;;;12.40;99.90;;;;;;5092335;28;20392;-88
2022/07/19 05:39:45;;;;;;;0.63;0.40;;;12.30;99.90;;;;;;5093724;28;20379;-93
2022/07/19 05:42:12;;;;;;;2.58;0.50;;;11.00;99.90;;;;;;5093197;28;20400;-90
2022/07/19 05:44:39;;;;;;;1.73;0.45;;;11.70;99.90;;;;;;5094540;28;20416;-88
2022/07/19 05:47:07;;;;;;;1.38;0.70;;;11.70;99.90;;;;;;5093269;28;20804;-89
2022/07/19 05:49:34;;;;;;;4.85;1.00;;;11.90;99.90;;;;;;5096813;28;20368;-88
2022/07/19 05:52:01;;;;;;;4.53;0.85;;;11.80;99.90;;;;;;5099484;28;20376;-84
2022/07/19 05:54:28;;;;;;;1.20;0.60;;;11.80;99.90;;;;;;5100107;28;20407;-86
2022/07/19 05:56:55;;;;;;;0.82;0.45;;;11.80;99.90;;;;;;5098992;28;20756;-86
2022/07/19 05:59:22;;;;;;;1.65;0.60;;;11.80;99.90;;;;;;5099078;28;20789;-85
2022/07/19 06:01:50;;;;;;;3.33;0.70;;;11.70;99.90;;;;;;5100105;28;20483;-85
2022/07/19 06:04:17;;;;;;;4.53;1.08;;;11.70;99.90;;;;;;5102199;28;20380;-88
2022/07/19 06:06:44;;;;;;;4.40;0.80;;;11.60;99.90;;;;;;5100476;28;20449;-87
2022/07/19 06:09:12;;;;;;;5.05;0.95;;;11.50;99.90;;;;;;5099161;28;20375;-87
2022/07/19 06:11:42;;;;;;;4.83;0.70;;;11.40;99.90;;;;;;5098825;28;20457;-85
2022/07/19 06:14:09;;;;;;;2.80;0.70;;;11.20;99.90;;;;;;5098154;28;20376;-85
2022/07/19 06:16:38;;;;;;;4.20;0.70;;;11.20;99.90;;;;;;5098088;28;20879;-85
2022/07/19 06:19:06;;;;;;;2.80;0.70;;;11.10;99.90;;;;;;5098615;28;20406;-86
2022/07/19 06:21:33;;;;;;;3.63;0.60;;;11.10;99.90;;;;;;5097275;28;20864;-83
2022/07/19 06:24:01;;;;;;;4.63;0.90;;;11.10;99.90;;;;;;5098867;28;20871;-88
2022/07/19 06:26:28;;;;;;;2.38;0.75;;;11.00;99.90;;;;;;5099040;28;20368;-86
2022/07/19 06:28:55;;;;;;;2.53;0.70;;;10.90;99.90;;;;;;5097330;28;20380;-85
2022/07/19 06:31:23;;;;;;;1.35;0.60;;;10.90;99.90;;;;;;5098054;28;20372;-82
2022/07/19 06:33:51;;;;;;;1.70;0.70;;;10.80;99.90;;;;;;5097610;28;20372;-88
2022/07/19 06:36:20;;;;;;;1.98;0.70;;;10.70;99.90;;;;;;5097588;28;20360;-90
2022/07/19 06:38:48;;;;;;;2.10;0.82;;;10.70;99.90;;;;;;5098154;28;20392;-91
2022/07/19 06:41:16;;;;;;;2.07;0.90;;;10.60;99.90;;;;;;5099391;28;20364;-86
2022/07/19 06:43:44;;;;;;;3.20;1.90;;;10.60;99.90;;;;;;5098355;28;20399;-84
2022/07/19 06:46:11;;;;;;;4.50;2.50;;;10.60;99.90;;;;;;5098197;28;20368;-86
2022/07/19 06:48:39;;;;;;;6.45;2.58;;;10.60;99.90;;;;;;5098746;28;20376;-93
2022/07/19 06:51:09;;;;;;;4.67;1.50;;;10.60;99.90;;;;;;5099579;28;20797;-90
2022/07/19 06:53:37;;;;;;;4.43;1.00;;;10.60;99.90;;;;;;5098776;28;20922;-86
2022/07/19 06:56:04;;;;;;;3.40;0.70;;;10.60;99.90;;;;;;5100798;28;20394;-87
2022/07/19 06:58:31;;;;;;;3.47;0.80;;;10.50;99.90;;;;;;5097164;28;20380;-84
2022/07/19 07:01:00;;;;;;;3.78;0.80;;;10.60;99.90;;;;;;5099550;28;20441;-85
2022/07/19 07:03:27;;;;;;;3.90;1.00;;;10.60;99.90;;;;;;5097507;28;20396;-88
2022/07/19 07:05:55;;;;;;;3.20;1.02;;;10.60;99.90;;;;;;5096975;28;20379;-85
2022/07/19 07:08:22;;;;;;;3.55;1.23;;;10.60;99.90;;;;;;5098192;28;20380;-90
2022/07/19 07:10:50;;;;;;;2.65;1.20;;;10.60;99.90;;;;;;5096771;28;20443;-90
2022/07/19 07:13:17;;;;;;;3.35;1.23;;;10.60;99.90;;;;;;5097535;28;20380;-87
2022/07/19 07:15:45;;;;;;;4.72;1.30;;;10.50;99.90;;;;;;5097697;28;20383;-85
2022/07/19 07:18:12;;;;;;;5.27;0.90;;;10.50;99.90;;;;;;5097237;28;20449;-87
2022/07/19 07:20:39;;;;;;;2.65;0.70;;;10.50;99.90;;;;;;5098255;28;20377;-89
2022/07/19 07:23:06;;;;;;;5.55;1.00;;;10.40;99.90;;;;;;5099155;28;20464;-92
2022/07/19 07:25:33;;;;;;;6.72;1.15;;;10.40;99.90;;;;;;5098683;28;20376;-89
2022/07/19 07:28:01;;;;;;;7.25;1.20;;;10.30;99.90;;;;;;5097274;28;20435;-91
2022/07/19 07:30:28;;;;;;;7.78;1.38;;;10.30;99.90;;;;;;5098815;28;20379;-89
2022/07/19 07:33:01;;;;;;;6.93;1.20;;;10.20;99.90;;;;;;5097238;28;20376;-91
2022/07/19 07:35:28;;;;;;;6.72;1.10;;;10.20;99.90;;;;;;5098259;28;20376;-86
2022/07/19 07:37:55;;;;;;;4.47;1.00;;;10.20;99.90;;;;;;5096453;28;20898;-92
2022/07/19 07:40:22;;;;;;;3.42;1.00;;;10.20;99.90;;;;;;5098649;28;20379;-89
2022/07/19 07:42:49;;;;;;;6.32;0.98;;;10.10;99.90;;;;;;5098057;28;20490;-88
2022/07/19 07:45:17;;;;;;;6.70;1.20;;;10.10;99.90;;;;;;5096797;28;20430;-90
2022/07/19 07:47:44;;;;;;;9.40;1.30;;;10.10;99.90;;;;;;5098023;28;20787;-91
2022/07/19 07:50:11;;;;;;;4.65;1.38;;;10.10;99.90;;;;;;5096792;28;20724;-88
2022/07/19 07:52:38;;;;;;;5.13;1.00;;;10.00;99.90;;;;;;5097919;28;20384;-89
2022/07/19 07:55:06;;;;;;;7.00;1.10;;;9.90;99.90;;;;;;5097549;28;20440;-89
2022/07/19 07:57:33;;;;;;;5.30;1.00;;;10.00;99.90;;;;;;5097624;28;20864;-91
2022/07/19 08:00:00;;;;;;;3.47;1.00;;;9.90;99.90;;;;;;5096255;28;20368;-90
2022/07/19 08:02:27;;;;;;;3.67;1.20;;;9.80;99.90;;;;;;5095662;28;20407;-87
2022/07/19 08:04:54;;;;;;;3.67;1.20;;;9.80;99.90;;;;;;5096103;28;20365;-85
2022/07/19 08:07:21;;;;;;;3.37;1.17;;;9.80;99.90;;;;;;5094372;28;20927;-84
2022/07/19 08:09:49;;;;;;;4.28;1.38;;;9.80;99.90;;;;;;5095345;28;20379;-85
2022/07/19 08:12:16;;;;;;;3.25;1.40;;;9.80;99.90;;;;;;5093872;28;20384;-82
2022/07/19 08:14:43;;;;;;;4.03;1.75;;;9.70;99.90;;;;;;5094568;28;20368;-83
2022/07/19 08:17:10;;;;;;;3.78;2.22;;;9.70;99.90;;;;;;5095075;28;20380;-84
2022/07/19 08:19:37;;;;;;;4.00;2.80;;;9.70;99.90;;;;;;5094044;28;20368;-83
2022/07/19 08:22:05;;;;;;;4.28;3.05;;;9.70;99.90;;;;;;5094560;28;20792;-83
2022/07/19 08:24:32;;;;;;;6.38;4.00;;;9.70;99.90;;;;;;5094233;28;20373;-83
2022/07/19 08:26:59;;;;;;;6.20;4.53;;;9.70;99.90;;;;;;5093893;28;20712;-80
2022/07/19 08:29:26;;;;;;;6.30;4.30;;;9.70;99.90;;;;;;5093887;28;20457;-85
2022/07/19 08:31:53;;;;;;;5.25;2.90;;;9.60;99.90;;;;;;5094010;28;20374;-80
2022/07/19 08:34:20;;;;;;;5.55;2.08;;;9.70;99.90;;;;;;5093941;28;20402;-86
2022/07/19 08:36:47;;;;;;;5.40;1.55;;;9.60;99.90;;;;;;5094539;28;20399;-90
2022/07/19 08:39:15;;;;;;;6.45;2.00;;;9.60;99.90;;;;;;5095198;28;20388;-78
2022/07/19 08:41:44;;;;;;;10.75;2.17;;;9.60;99.90;;;;;;5095091;28;20373;-82
2022/07/19 08:44:13;;;;;;;7.82;2.05;;;9.60;99.90;;;;;;5095177;28;20385;-89
2022/07/19 08:46:43;;;;;;;7.35;2.10;;;9.60;99.90;;;;;;5095887;28;20391;-83
2022/07/19 08:49:11;;;;;;;9.00;1.88;;;9.60;99.90;;;;;;5095376;28;20395;-83
2022/07/19 08:51:39;;;;;;;5.07;1.98;;;9.50;99.90;;;;;;5094850;28;20369;-87
2022/07/19 08:54:06;;;;;;;3.80;2.40;;;9.50;99.90;;;;;;5096303;28;20888;-83
2022/07/19 08:59:19;;;;;;;6.55;2.00;;;9.50;99.90;;;;;;5098273;28;20410;-86
2022/07/19 09:01:46;;;;;;;5.13;1.60;;;9.50;99.90;;;;;;5095816;28;20388;-85
2022/07/19 09:04:20;;;;;;;4.03;1.63;;;9.50;99.90;;;;;;5096095;28;20387;-84
2022/07/19 09:06:52;;;;;;;4.20;1.45;;;9.50;99.90;;;;;;5095532;28;20373;-87
2022/07/19 09:09:30;;;;;;;4.40;1.52;;;9.50;99.90;;;;;;5095504;28;20943;-85
2022/07/19 09:11:59;;;;;;;4.50;1.40;;;9.50;99.90;;;;;;5095317;28;20376;-88
2022/07/19 09:14:30;;;;;;;5.47;1.40;;;9.50;99.90;;;;;;5094529;28;20361;-90
2022/07/19 09:17:03;;;;;;;3.00;1.38;;;9.50;99.90;;;;;;5094920;28;20697;-81
2022/07/19 09:19:38;;;;;;;3.97;1.42;;;9.40;99.90;;;;;;5094285;28;20380;-88
2022/07/19 09:22:08;;;;;;;5.32;2.30;;;9.30;99.90;;;;;;5094004;28;20393;-86
2022/07/19 09:24:43;;;;;;;5.85;1.75;;;9.40;99.90;;;;;;5093562;28;20380;-88
2022/07/19 09:27:14;;;;;;;5.13;1.80;;;9.40;99.90;;;;;;5093020;28;20368;-88
2022/07/19 09:29:43;;;;;;;5.93;1.90;;;9.40;99.90;;;;;;5093487;28;20880;-88
2022/07/19 09:32:14;;;;;;;3.80;1.80;;;9.40;99.90;;;;;;5094529;28;20373;-82
2022/07/19 09:34:53;;;;;;;5.72;3.38;;;9.40;99.90;;;;;;5093705;28;20402;-89
2022/07/19 09:37:27;;;;;;;4.20;2.00;;;9.30;99.90;;;;;;5093989;28;21029;-88
2022/07/19 09:39:57;;;;;;;4.25;1.60;;;9.30;99.90;;;;;;5093479;28;20407;-89
2022/07/19 09:42:34;;;;;;;4.30;2.08;;;9.30;99.90;;;;;;5093827;28;20906;-83
2022/07/19 09:45:05;;;;;;;3.35;2.28;;;9.30;99.90;;;;;;5093455;28;20368;-84
2022/07/19 09:47:38;;;;;;;5.78;2.53;;;9.40;99.90;;;;;;5093664;28;20368;-84
2022/07/19 09:50:08;;;;;;;5.50;2.90;;;9.40;99.90;;;;;;5093474;28;20369;-83
2022/07/19 09:52:39;;;;;;;4.65;2.28;;;9.40;99.90;;;;;;5094483;28;20402;-82
2022/07/19 09:55:07;;;;;;;6.38;3.35;;;10.40;99.90;;;;;;5096912;28;20716;-86
2022/07/19 09:57:41;;;;;;;8.77;4.90;;;9.40;99.90;;;;;;5094106;28;20376;-87
2022/07/19 10:00:10;;;;;;;8.05;3.80;;;9.40;99.90;;;;;;5096161;28;20391;-86
2022/07/19 10:02:41;;;;;;;5.50;2.95;;;9.40;99.90;;;;;;5095219;28;20891;-86
2022/07/19 10:08:31;;;;;;;6.05;2.30;;;9.40;99.90;;;;;;5097125;28;20355;-86
2022/07/19 10:10:58;;;;;;;3.60;1.98;;;9.30;99.90;;;;;;5095951;28;20471;-81
2022/07/19 10:13:26;;;;;;;4.03;1.65;;;9.30;99.90;;;;;;5094655;28;20853;-81
2022/07/19 10:15:57;;;;;;;5.85;2.10;;;9.30;99.90;;;;;;5096944;28;20396;-82
2022/07/19 10:18:33;;;;;;;4.15;1.30;;;9.20;99.90;;;;;;5097967;28;20400;-81
2022/07/19 10:21:01;;;;;;;3.75;1.20;;;9.20;99.90;;;;;;5097077;28;20866;-86
2022/07/19 10:23:29;;;;;;;2.38;1.20;;;9.20;99.90;;;;;;5095131;28;20404;-83
2022/07/19 10:25:56;;;;;;;5.32;1.38;;;9.10;99.90;;;;;;5096926;28;20389;-91
2022/07/19 10:28:36;;;;;;;3.33;1.40;;;9.10;99.90;;;;;;5097737;28;20377;-82
2022/07/19 10:31:23;;;;;;;4.25;2.13;;;9.00;99.90;;;;;;5095218;28;20433;-90
2022/07/19 10:34:09;;;;;;;5.47;3.38;;;9.00;99.90;;;;;;5097463;28;20368;-82
2022/07/19 10:36:48;;;;;;;5.45;4.00;;;8.90;99.90;;;;;;5097744;28;20502;-81
2022/07/19 10:39:38;;;;;;;5.28;3.80;;;8.80;99.90;;;;;;5099594;28;20721;-84
2022/07/19 10:42:20;;;;;;;5.47;2.80;;;8.80;99.90;;;;;;5100618;28;20529;-88
2022/07/19 10:44:56;;;;;;;5.70;2.42;;;8.80;99.90;;;;;;5100924;28;20455;-83
2022/07/19 10:47:23;;;;;;;7.35;2.30;;;8.80;99.90;;;;;;5099066;28;20365;-84
2022/07/19 10:49:50;;;;;;;5.50;2.50;;;8.80;99.90;;;;;;5098396;28;20466;-88
2022/07/19 10:52:29;;;;;;;5.43;2.05;;;8.90;99.90;;;;;;5099120;28;20373;-86
2022/07/19 10:55:19;;;;;;;3.58;1.90;;;8.90;99.90;;;;;;5098590;28;20430;-82
2022/07/19 10:57:48;;;;;;;3.80;1.88;;;8.90;99.90;;;;;;5098409;28;20369;-82
2022/07/19 11:00:30;;;;;;;3.80;2.08;;;8.90;99.90;;;;;;5097465;28;20911;-83
2022/07/19 11:03:25;;;;;;;5.57;2.17;;;8.90;99.90;;;;;;5098752;28;20415;-89
2022/07/19 11:05:57;;;;;;;3.20;2.60;;;8.90;99.90;;;;;;5096718;28;20372;-85
2022/07/19 11:08:39;;;;;;;5.57;3.70;;;9.00;99.90;;;;;;5097467;28;20364;-88
2022/07/19 11:11:18;;;;;;;6.07;4.50;;;8.90;99.90;;;;;;5096909;28;20368;-84
2022/07/19 11:13:54;;;;;;;4.00;2.70;;;9.00;99.90;;;;;;5096331;28;20774;-83
2022/07/19 11:16:25;;;;;;;4.50;2.70;;;9.00;99.90;;;;;;5096866;28;20848;-86
2022/07/19 11:18:52;;;;;;;4.10;2.60;;;9.00;99.90;;;;;;5097929;28;20377;-89
2022/07/19 11:21:19;;;;;;;4.60;3.10;;;9.00;99.90;;;;;;5095837;28;20465;-86
2022/07/19 11:23:46;;;;;;;6.32;2.88;;;9.00;99.90;;;;;;5096697;28;20779;-86
2022/07/19 11:26:21;;;;;;;5.00;2.83;;;9.00;99.90;;;;;;5096169;28;20427;-88
2022/07/19 11:28:49;;;;;;;6.13;2.80;;;8.90;99.90;;;;;;5095949;28;20727;-82
2022/07/19 11:31:22;;;;;;;8.40;3.17;;;8.80;99.90;;;;;;5095384;28;20370;-84
2022/07/19 11:33:53;;;;;;;5.07;2.60;;;8.80;99.90;;;;;;5095069;28;20365;-84
2022/07/19 11:36:21;;;;;;;7.00;2.88;;;8.80;99.90;;;;;;5095694;28;20364;-83
2022/07/19 11:38:50;;;;;;;7.03;3.67;;;8.80;99.90;;;;;;5096093;28;20372;-85
2022/07/19 11:41:23;;;;;;;8.80;3.25;;;8.80;99.90;;;;;;5095588;28;20887;-83
2022/07/19 11:44:10;;;;;;;7.10;2.80;;;8.80;99.90;;;;;;5095976;28;20400;-85
2022/07/19 11:46:42;;;;;;;8.43;4.07;;;8.80;99.90;;;;;;5095398;28;20459;-82
2022/07/19 11:49:10;;;;;;;8.95;4.22;;;8.80;99.90;;;;;;5095999;28;20767;-85
2022/07/19 11:51:38;;;;;;;8.52;4.32;;;8.20;99.90;;;;;;5095431;28;20926;-82
2022/07/19 11:54:07;;;;;;;8.60;4.63;;;8.80;99.90;;;;;;5094945;28;20749;-82
2022/07/19 11:56:35;;;;;;;5.95;2.67;;;8.80;99.90;;;;;;5096086;28;20384;-85
2022/07/19 11:59:07;;;;;;;5.57;2.40;;;8.70;99.90;;;;;;5097107;28;20372;-82
2022/07/19 12:01:37;;;;;;;4.88;2.30;;;8.70;99.90;;;;;;5096899;28;20489;-85
2022/07/19 12:04:11;;;;;;;6.57;3.00;;;8.60;99.90;;;;;;5096212;28;20356;-84
2022/07/19 12:06:51;;;;;;;8.63;4.35;;;8.50;99.90;;;;;;5095790;28;20728;-84
2022/07/19 12:09:25;;;;;;;7.78;3.38;;;8.40;99.90;;;;;;5095528;28;20775;-83
2022/07/19 12:11:54;;;;;;;5.55;3.30;;;8.40;99.90;;;;;;5094444;28;20732;-83
2022/07/19 12:14:25;;;;;;;6.05;3.25;;;8.40;99.90;;;;;;5095150;28;20433;-83
2022/07/19 12:17:20;;;;;;;6.18;2.83;;;8.40;99.90;;;;;;5094993;28;20739;-83
2022/07/19 12:19:53;;;;;;;5.80;4.00;;;8.30;99.90;;;;;;5095374;28;20368;-83
2022/07/19 12:22:39;;;;;;;7.72;3.75;;;8.20;99.90;;;;;;5094738;28;20445;-81
2022/07/19 12:25:08;;;;;;;6.60;3.85;;;8.10;99.90;;;;;;5095016;28;20860;-84
2022/07/19 12:27:35;;;;;;;6.40;4.00;;;8.10;99.90;;;;;;5095131;28;20369;-83
2022/07/19 12:30:05;;;;;;;7.47;4.30;;;8.10;99.90;;;;;;5093895;28;20381;-81
2022/07/19 12:32:37;;;;;;;7.55;4.65;;;8.10;99.90;;;;;;5094165;28;20941;-84
2022/07/19 12:35:11;;;;;;;9.35;5.35;;;8.10;99.90;;;;;;5094241;28;20369;-81
2022/07/19 12:37:44;;;;;;;6.85;5.28;;;8.10;99.90;;;;;;5060834;28;20397;-81
2022/07/19 12:40:13;;;;;;;6.40;4.80;;;8.20;99.90;;;;;;5094297;28;20740;-82
2022/07/19 12:42:45;;;;;;;8.38;4.70;;;8.30;99.90;;;;;;5094578;28;20384;-83
2022/07/19 12:45:21;;;;;;;6.72;4.38;;;8.30;99.90;;;;;;5094475;28;20899;-83
2022/07/19 12:47:50;;;;;;;9.65;4.68;;;8.40;99.90;;;;;;5094997;28;20686;-82
2022/07/19 12:50:27;;;;;;;6.20;3.97;;;8.40;99.90;;;;;;5093662;28;20475;-82
2022/07/19 12:52:57;;;;;;;6.47;4.60;;;8.40;99.90;;;;;;5094365;28;20449;-84
2022/07/19 12:55:26;;;;;;;8.00;4.20;;;8.40;99.90;;;;;;5094598;28;20375;-83
2022/07/19 12:57:54;;;;;;;6.05;3.47;;;8.40;99.90;;;;;;5093132;28;20379;-84
2022/07/19 13:00:23;;;;;;;6.75;3.70;;;7.70;99.90;;;;;;5094009;28;20394;-84
2022/07/19 13:02:51;;;;;;;6.82;3.65;;;8.50;99.90;;;;;;5092435;28;20763;-85
2022/07/19 13:05:19;;;;;;;8.60;3.60;;;8.60;99.90;;;;;;5094946;28;20396;-86